createdAt,value
2023-03-12T00:02:05.264Z,0.93
2023-03-12T00:05:07.953Z,1.23
2023-03-12T00:08:11.092Z,0.93
2023-03-12T00:11:18.039Z,1.17
2023-03-12T00:14:20.487Z,1.23
2023-03-12T00:17:22.555Z,1.23
2023-03-12T00:20:24.712Z,1.07
2023-03-12T00:23:27.337Z,1.10
2023-03-12T00:26:29.392Z,1.20
2023-03-12T00:29:31.430Z,1.00
2023-03-12T00:32:34.353Z,1.20
2023-03-12T00:35:38.664Z,1.10
2023-03-12T00:38:40.759Z,1.07
2023-03-12T00:41:42.743Z,1.40
2023-03-12T00:44:45.080Z,1.23
2023-03-12T00:47:47.449Z,1.33
2023-03-12T00:50:49.599Z,1.40
2023-03-12T00:53:51.767Z,1.50
2023-03-12T00:56:53.850Z,1.23
2023-03-12T00:59:55.913Z,1.10
2023-03-12T01:02:57.908Z,1.43
2023-03-12T01:06:00.503Z,0.97
2023-03-12T01:09:05.404Z,1.20
2023-03-12T01:12:07.745Z,1.30
2023-03-12T01:15:13.425Z,1.10
2023-03-12T01:18:15.415Z,1.57
2023-03-12T01:21:17.745Z,1.10
2023-03-12T01:24:19.842Z,1.47
2023-03-12T01:27:21.919Z,1.23
2023-03-12T01:30:23.972Z,1.50
2023-03-12T01:33:25.947Z,1.13
2023-03-12T01:36:30.848Z,1.20
2023-03-12T01:39:32.985Z,1.00
2023-03-12T01:42:35.159Z,1.50
2023-03-12T01:46:21.904Z,1.40
2023-03-12T01:49:29.582Z,1.00
2023-03-12T01:52:37.111Z,1.30
2023-03-12T01:55:40.573Z,1.30
2023-03-12T01:58:48.068Z,1.77
2023-03-12T02:01:51.152Z,1.07
2023-03-12T02:05:02.110Z,1.40
2023-03-12T02:08:04.307Z,1.20
2023-03-12T02:11:07.066Z,1.13
2023-03-12T02:14:09.331Z,1.60
2023-03-12T02:17:12.585Z,1.43
2023-03-12T02:20:22.684Z,1.17
2023-03-12T02:23:35.162Z,1.30
2023-03-12T02:26:39.640Z,1.30
2023-03-12T02:29:44.691Z,1.23
2023-03-12T02:32:48.863Z,1.13
2023-03-12T02:35:53.142Z,1.47
2023-03-12T02:38:56.717Z,1.20
2023-03-12T02:42:00.001Z,2.17
2023-03-12T02:45:03.656Z,1.40
2023-03-12T02:48:08.897Z,1.20
2023-03-12T02:51:11.018Z,1.73
2023-03-12T02:54:15.512Z,1.40
2023-03-12T02:57:18.097Z,1.43
2023-03-12T03:00:20.874Z,1.20
2023-03-12T03:03:26.550Z,1.33
2023-03-12T03:06:34.845Z,1.27
2023-03-12T03:09:36.914Z,1.33
2023-03-12T03:12:40.218Z,1.53
2023-03-12T03:15:42.945Z,1.20
2023-03-12T03:18:45.084Z,1.83
2023-03-12T03:21:47.309Z,1.50
2023-03-12T03:24:49.478Z,1.00
2023-03-12T03:27:51.554Z,1.27
2023-03-12T03:30:55.123Z,1.83
2023-03-12T03:33:57.416Z,1.40
2023-03-12T03:36:59.603Z,1.10
2023-03-12T03:40:01.814Z,1.10
2023-03-12T03:43:03.985Z,0.90
2023-03-12T03:46:17.268Z,1.37
2023-03-12T03:49:24.517Z,1.40
2023-03-12T03:52:26.593Z,1.07
2023-03-12T03:55:29.385Z,1.00
2023-03-12T03:58:31.566Z,1.13
2023-03-12T04:01:33.681Z,1.47
2023-03-12T04:04:36.952Z,1.50
2023-03-12T04:07:39.548Z,1.20
2023-03-12T04:10:42.162Z,1.20
2023-03-12T04:13:45.125Z,1.50
2023-03-12T04:16:48.765Z,1.30
2023-03-12T04:19:50.869Z,1.30
2023-03-12T04:22:53.093Z,1.10
2023-03-12T04:25:55.147Z,1.10
2023-03-12T04:28:57.900Z,1.50
2023-03-12T04:32:00.025Z,1.40
2023-03-12T04:35:02.274Z,1.50
2023-03-12T04:38:04.427Z,1.40
2023-03-12T04:41:11.818Z,1.33
2023-03-12T04:44:19.814Z,1.10
2023-03-12T04:47:22.218Z,1.30
2023-03-12T04:50:24.426Z,1.33
2023-03-12T04:53:27.582Z,1.10
2023-03-12T04:56:30.417Z,1.13
2023-03-12T04:59:33.194Z,1.40
2023-03-12T05:02:36.378Z,1.10
2023-03-12T05:05:38.532Z,1.40
2023-03-12T05:08:40.943Z,1.37
2023-03-12T05:11:43.130Z,1.10
2023-03-12T05:14:47.264Z,1.07
2023-03-12T05:17:49.489Z,1.03
2023-03-12T05:21:03.258Z,1.50
2023-03-12T05:24:05.973Z,1.10
2023-03-12T05:27:08.638Z,1.37
2023-03-12T05:30:11.489Z,1.20
2023-03-12T05:33:13.924Z,1.00
2023-03-12T05:36:16.483Z,1.10
2023-03-12T05:39:20.802Z,1.27
2023-03-12T05:42:25.281Z,1.20
2023-03-12T05:45:27.769Z,1.40
2023-03-12T05:48:32.427Z,0.97
2023-03-12T05:51:35.003Z,1.43
2023-03-12T05:54:37.323Z,1.27
2023-03-12T05:57:40.931Z,1.23
2023-03-12T06:00:44.730Z,1.13
2023-03-12T06:03:48.521Z,1.23
2023-03-12T06:06:50.611Z,1.20
2023-03-12T06:09:52.630Z,1.30
2023-03-12T06:12:55.101Z,1.80
2023-03-12T06:16:06.361Z,1.47
2023-03-12T06:19:21.643Z,1.57
2023-03-12T06:22:26.023Z,1.40
2023-03-12T06:25:28.184Z,1.53
2023-03-12T06:28:30.412Z,1.13
2023-03-12T06:31:32.664Z,1.13
2023-03-12T06:34:35.493Z,1.53
2023-03-12T06:37:37.929Z,1.40
2023-03-12T06:40:40.222Z,1.30
2023-03-12T06:43:43.915Z,1.27
2023-03-12T06:46:46.333Z,2.03
2023-03-12T06:49:48.652Z,1.80
2023-03-12T06:52:50.736Z,1.47
2023-03-12T06:55:53.134Z,1.87
2023-03-12T06:58:55.351Z,1.80
2023-03-12T07:01:57.567Z,2.10
2023-03-12T07:04:59.610Z,2.20
2023-03-12T07:08:02.030Z,2.30
2023-03-12T07:11:04.125Z,1.97
2023-03-12T07:14:06.131Z,1.77
2023-03-12T07:17:08.402Z,2.20
2023-03-12T07:20:11.189Z,1.80
2023-03-12T07:23:13.660Z,2.13
2023-03-12T07:26:15.827Z,1.67
2023-03-12T07:29:17.836Z,2.00
2023-03-12T07:32:21.446Z,1.97
2023-03-12T07:35:24.294Z,1.60
2023-03-12T07:38:26.728Z,1.90
2023-03-12T07:41:28.860Z,1.43
2023-03-12T07:44:31.774Z,1.60
2023-03-12T07:47:34.172Z,1.57
2023-03-12T07:50:36.900Z,1.40
2023-03-12T07:53:38.958Z,1.63
2023-03-12T07:56:41.240Z,1.37
2023-03-12T07:59:43.342Z,1.70
2023-03-12T08:02:45.868Z,1.50
2023-03-12T08:06:00.565Z,1.77
2023-03-12T08:09:02.637Z,1.33
2023-03-12T08:12:06.062Z,1.50
2023-03-12T08:15:11.225Z,1.40
2023-03-12T08:18:13.467Z,1.60
2023-03-12T08:21:16.809Z,1.67
2023-03-12T08:24:19.817Z,1.37
2023-03-12T08:27:21.878Z,1.50
2023-03-12T08:30:24.037Z,1.27
2023-03-12T08:33:26.880Z,1.50
2023-03-12T08:36:29.225Z,1.30
2023-03-12T08:39:31.992Z,1.07
2023-03-12T08:42:34.015Z,1.47
2023-03-12T08:45:39.196Z,1.43
2023-03-12T08:48:42.286Z,1.73
2023-03-12T08:51:44.936Z,1.60
2023-03-12T08:54:46.891Z,1.43
2023-03-12T08:57:49.510Z,1.50
2023-03-12T09:00:52.908Z,1.37
2023-03-12T09:03:55.526Z,1.80
2023-03-12T09:06:57.547Z,2.27
2023-03-12T09:09:59.673Z,1.70
2023-03-12T09:13:02.660Z,1.67
2023-03-12T09:16:07.667Z,1.60
2023-03-12T09:19:10.025Z,1.60
2023-03-12T09:22:12.455Z,1.80
2023-03-12T09:25:15.238Z,1.70
2023-03-12T09:28:17.392Z,1.50
2023-03-12T09:31:23.642Z,1.57
2023-03-12T09:34:27.262Z,1.90
2023-03-12T09:37:29.544Z,1.40
2023-03-12T09:40:34.032Z,2.10
2023-03-12T09:43:48.047Z,2.23
2023-03-12T09:46:58.304Z,1.63
2023-03-12T09:50:16.120Z,1.40
2023-03-12T09:53:48.762Z,1.63
2023-03-12T09:56:55.836Z,1.53
2023-03-12T09:59:58.439Z,1.40
2023-03-12T10:03:19.826Z,1.30
2023-03-12T10:06:25.097Z,1.53
2023-03-12T10:09:38.102Z,1.80
2023-03-12T10:13:11.564Z,1.77
2023-03-12T10:16:32.025Z,1.87
2023-03-12T10:19:52.243Z,1.70
2023-03-12T10:22:57.329Z,1.57
2023-03-12T10:26:12.311Z,1.77
2023-03-12T10:29:20.816Z,1.77
2023-03-12T10:32:38.016Z,2.07
2023-03-12T10:35:40.874Z,2.20
2023-03-12T10:38:43.004Z,1.80
2023-03-12T10:41:47.338Z,1.80
2023-03-12T10:44:53.046Z,1.90
2023-03-12T10:48:03.114Z,2.10
2023-03-12T10:51:17.280Z,2.40
2023-03-12T10:54:27.933Z,2.47
2023-03-12T10:57:40.879Z,2.60
2023-03-12T11:00:58.991Z,2.00
2023-03-12T11:04:19.829Z,2.23
2023-03-12T11:07:27.939Z,2.23
2023-03-12T11:10:32.757Z,2.30
2023-03-12T11:13:38.285Z,2.43
2023-03-12T11:16:40.470Z,1.80
2023-03-12T11:19:42.476Z,2.23
2023-03-12T11:22:44.477Z,2.13
2023-03-12T11:26:32.631Z,2.27
2023-03-12T11:29:40.547Z,2.30
2023-03-12T11:32:47.196Z,2.23
2023-03-12T11:36:27.298Z,2.40
2023-03-12T11:39:55.728Z,2.07
2023-03-12T11:43:35.953Z,2.20
2023-03-12T11:47:04.092Z,2.20
2023-03-12T11:50:29.493Z,2.00
2023-03-12T11:53:49.557Z,2.20
2023-03-12T11:56:59.279Z,1.70
2023-03-12T12:00:13.251Z,2.50
2023-03-12T12:04:01.796Z,1.80
2023-03-12T12:07:36.357Z,2.20
2023-03-12T12:11:04.306Z,1.83
2023-03-12T12:14:16.154Z,2.30
2023-03-12T12:17:43.070Z,2.10
2023-03-12T12:21:08.010Z,1.90
2023-03-12T12:24:24.624Z,2.40
2023-03-12T12:27:30.337Z,1.80
2023-03-12T12:30:41.347Z,1.87
2023-03-12T12:34:16.202Z,1.90
2023-03-12T12:37:58.698Z,1.93
2023-03-12T12:41:24.004Z,1.73
2023-03-12T12:44:36.139Z,1.70
2023-03-12T12:47:47.095Z,1.50
2023-03-12T12:50:52.322Z,1.70
2023-03-12T12:54:10.628Z,1.77
2023-03-12T12:57:29.318Z,2.10
2023-03-12T13:00:40.165Z,2.00
2023-03-12T13:03:43.574Z,1.60
2023-03-12T13:07:13.098Z,1.87
2023-03-12T13:10:48.400Z,1.60
2023-03-12T13:14:05.434Z,1.73
2023-03-12T13:17:29.828Z,1.70
2023-03-12T13:20:37.099Z,1.70
2023-03-12T13:24:05.851Z,1.70
2023-03-12T13:27:32.279Z,1.60
2023-03-12T13:30:34.405Z,1.80
2023-03-12T13:33:41.072Z,2.07
2023-03-12T13:36:52.617Z,1.70
2023-03-12T13:39:55.118Z,1.50
2023-03-12T13:43:30.785Z,2.00
2023-03-12T13:47:11.236Z,1.93
2023-03-12T13:50:18.017Z,1.73
2023-03-12T13:53:38.612Z,2.23
2023-03-12T13:56:48.267Z,2.03
2023-03-12T13:59:51.906Z,1.50
2023-03-12T14:02:56.350Z,2.07
2023-03-12T14:06:00.561Z,1.70
2023-03-12T14:09:11.252Z,1.50
2023-03-12T14:12:19.491Z,2.07
2023-03-12T14:15:40.019Z,2.13
2023-03-12T14:18:46.107Z,1.93
2023-03-12T14:21:50.740Z,1.80
2023-03-12T14:25:01.524Z,1.63
2023-03-12T14:28:14.022Z,1.50
2023-03-12T14:31:23.249Z,1.40
2023-03-12T14:34:34.198Z,1.50
2023-03-12T14:37:42.744Z,1.53
2023-03-12T14:40:58.292Z,2.00
2023-03-12T14:44:25.325Z,1.70
2023-03-12T14:47:28.089Z,1.70
2023-03-12T14:50:38.472Z,1.57
2023-03-12T14:53:40.502Z,1.87
2023-03-12T14:56:44.585Z,1.93
2023-03-12T14:59:57.730Z,1.77
2023-03-12T15:03:05.313Z,2.00
2023-03-12T15:06:18.110Z,2.07
2023-03-12T15:09:26.230Z,1.73
2023-03-12T15:12:35.222Z,1.80
2023-03-12T15:15:47.600Z,1.93
2023-03-12T15:18:50.973Z,1.87
2023-03-12T15:21:53.197Z,1.90
2023-03-12T15:24:55.652Z,1.80
2023-03-12T15:28:22.934Z,1.80
2023-03-12T15:31:25.815Z,1.87
2023-03-12T15:34:38.919Z,1.80
2023-03-12T15:37:43.835Z,1.90
2023-03-12T15:40:52.053Z,1.97
2023-03-12T15:43:59.994Z,2.50
2023-03-12T15:47:15.740Z,2.03
2023-03-12T15:50:24.150Z,1.97
2023-03-12T15:53:35.309Z,1.53
2023-03-12T15:56:37.975Z,1.90
2023-03-12T15:59:40.533Z,1.70
2023-03-12T16:02:52.255Z,2.00
2023-03-12T16:05:57.808Z,1.53
2023-03-12T16:09:03.884Z,1.73
2023-03-12T16:12:06.663Z,1.57
2023-03-12T16:15:15.628Z,1.60
2023-03-12T16:18:20.385Z,1.33
2023-03-12T16:21:23.308Z,1.77
2023-03-12T16:24:26.163Z,1.40
2023-03-12T16:27:32.817Z,1.60
2023-03-12T16:30:37.631Z,1.57
2023-03-12T16:33:40.755Z,1.50
2023-03-12T16:36:43.274Z,1.60
2023-03-12T16:39:47.099Z,1.40
2023-03-12T16:42:54.681Z,1.40
2023-03-12T16:46:00.370Z,1.80
2023-03-12T16:49:04.244Z,1.00
2023-03-12T16:52:21.465Z,1.37
2023-03-12T16:55:32.847Z,1.17
2023-03-12T16:58:37.187Z,1.10
2023-03-12T17:01:39.724Z,1.30
2023-03-12T17:04:42.463Z,1.40
2023-03-12T17:07:45.230Z,1.70
2023-03-12T17:10:48.030Z,1.50
2023-03-12T17:13:58.976Z,1.40
2023-03-12T17:17:02.194Z,1.33
2023-03-12T17:20:10.933Z,1.30
2023-03-12T17:23:14.418Z,1.60
2023-03-12T17:26:19.324Z,1.60
2023-03-12T17:29:22.313Z,1.40
2023-03-12T17:32:25.268Z,1.60
2023-03-12T17:35:28.577Z,1.40
2023-03-12T17:38:33.190Z,1.33
2023-03-12T17:41:36.321Z,1.80
2023-03-12T17:44:39.694Z,1.43
2023-03-12T17:47:42.410Z,1.67
2023-03-12T17:50:45.910Z,1.70
2023-03-12T17:53:51.837Z,1.90
2023-03-12T17:56:54.808Z,1.50
2023-03-12T17:59:57.857Z,1.67
2023-03-12T18:03:00.904Z,1.77
2023-03-12T18:06:03.968Z,1.60
2023-03-12T18:09:06.637Z,1.67
2023-03-12T18:12:11.235Z,1.60
2023-03-12T18:15:15.445Z,1.73
2023-03-12T18:18:21.860Z,1.60
2023-03-12T18:21:25.337Z,1.70
2023-03-12T18:24:29.143Z,2.00
2023-03-12T18:27:31.730Z,1.47
2023-03-12T18:30:34.794Z,1.70
2023-03-12T18:33:40.710Z,1.50
2023-03-12T18:36:43.978Z,1.43
2023-03-12T18:39:48.019Z,1.40
2023-03-12T18:42:51.531Z,1.30
2023-03-12T18:45:55.914Z,1.30
2023-03-12T18:49:13.274Z,1.50
2023-03-12T18:52:16.249Z,1.33
2023-03-12T18:55:19.206Z,1.53
2023-03-12T18:58:22.601Z,1.57
2023-03-12T19:01:25.661Z,1.63
2023-03-12T19:04:29.074Z,1.20
2023-03-12T19:07:38.887Z,1.43
2023-03-12T19:10:43.578Z,1.20
2023-03-12T19:13:50.440Z,1.40
2023-03-12T19:16:53.913Z,1.73
2023-03-12T19:19:57.314Z,1.23
2023-03-12T19:23:00.120Z,1.40
2023-03-12T19:26:03.486Z,1.43
2023-03-12T19:29:09.298Z,1.00
2023-03-12T19:32:13.760Z,1.00
2023-03-12T19:35:16.874Z,1.30
2023-03-12T19:38:20.139Z,1.13
2023-03-12T19:41:23.113Z,1.37
2023-03-12T19:44:28.480Z,1.40
2023-03-12T19:47:33.405Z,1.20
2023-03-12T19:50:36.317Z,1.43
2023-03-12T19:53:40.474Z,1.50
2023-03-12T19:56:43.627Z,1.53
2023-03-12T19:59:48.052Z,1.43
2023-03-12T20:02:51.926Z,1.30
2023-03-12T20:05:56.436Z,1.23
2023-03-12T20:09:00.008Z,1.23
2023-03-12T20:12:06.483Z,1.17
2023-03-12T20:15:10.256Z,1.33
2023-03-12T20:18:17.031Z,1.47
2023-03-12T20:21:20.980Z,1.20
2023-03-12T20:24:24.789Z,1.10
2023-03-12T20:27:28.139Z,1.07
2023-03-12T20:30:32.635Z,1.40
2023-03-12T20:33:35.549Z,1.40
2023-03-12T20:36:39.530Z,1.47
2023-03-12T20:39:42.477Z,1.20
2023-03-12T20:42:45.491Z,1.20
2023-03-12T20:45:49.205Z,1.20
2023-03-12T20:48:52.399Z,1.67
2023-03-12T20:51:56.512Z,0.90
2023-03-12T20:54:59.680Z,1.40
2023-03-12T20:58:02.716Z,1.53
2023-03-12T21:01:06.677Z,1.30
2023-03-12T21:04:09.704Z,1.73
2023-03-12T21:07:13.710Z,1.10
2023-03-12T21:10:16.859Z,1.17
2023-03-12T21:13:21.282Z,1.00
2023-03-12T21:16:24.501Z,0.93
2023-03-12T21:19:31.764Z,0.80
2023-03-12T21:22:35.325Z,1.20
2023-03-12T21:25:39.719Z,0.90
2023-03-12T21:28:42.336Z,0.83
2023-03-12T21:31:45.142Z,1.10
2023-03-12T21:34:47.466Z,0.93
2023-03-12T21:37:50.797Z,0.80
2023-03-12T21:40:54.412Z,0.90
2023-03-12T21:43:56.653Z,0.90
2023-03-12T21:46:59.213Z,0.80
2023-03-12T21:50:01.643Z,0.90
2023-03-12T21:53:11.571Z,0.77
2023-03-12T21:56:19.866Z,0.70
2023-03-12T21:59:21.852Z,0.80
2023-03-12T22:02:24.432Z,0.80
2023-03-12T22:05:27.385Z,1.20
2023-03-12T22:08:29.504Z,0.80
2023-03-12T22:11:31.620Z,0.90
2023-03-12T22:14:33.610Z,1.10
2023-03-12T22:17:35.729Z,1.00
2023-03-12T22:20:37.771Z,0.83
2023-03-12T22:23:39.770Z,1.00
2023-03-12T22:26:41.731Z,1.07
2023-03-12T22:29:43.714Z,1.13
2023-03-12T22:32:45.806Z,0.90
2023-03-12T22:35:48.879Z,1.03
2023-03-12T22:38:51.396Z,0.80
2023-03-12T22:41:53.850Z,1.17
2023-03-12T22:44:55.853Z,1.00
2023-03-12T22:47:57.913Z,0.93
2023-03-12T22:51:00.105Z,1.37
2023-03-12T22:54:02.205Z,1.23
2023-03-12T22:57:04.183Z,0.93
2023-03-12T23:00:10.626Z,0.97
2023-03-12T23:03:12.733Z,1.00
2023-03-12T23:06:25.981Z,0.90
2023-03-12T23:09:28.415Z,0.80
2023-03-12T23:12:30.896Z,0.83
2023-03-12T23:15:40.732Z,0.83
2023-03-12T23:18:43.780Z,0.80
2023-03-12T23:21:45.869Z,1.20
2023-03-12T23:24:47.898Z,0.80
2023-03-12T23:27:49.873Z,1.00
2023-03-12T23:31:00.447Z,0.80
2023-03-12T23:34:02.475Z,0.80
2023-03-12T23:37:04.752Z,1.00
2023-03-12T23:40:07.327Z,0.63
2023-03-12T23:43:09.281Z,0.70
2023-03-12T23:46:12.710Z,0.60
2023-03-12T23:49:14.893Z,0.53
2023-03-12T23:52:16.841Z,0.50
2023-03-12T23:55:18.850Z,0.70
2023-03-12T23:58:20.831Z,0.60
